sensor_id;sensor_type;location;lat;lon;timestamp;P1;durP1;ratioP1;P2;durP2;ratioP2
39740;SDS011;25426;53.478;10.190;2024-03-02T00:00:24;32.60;;;22.63;;
39740;SDS011;25426;53.478;10.190;2024-03-02T00:02:57;39.10;;;22.00;;
39740;SDS011;25426;53.478;10.190;2024-03-02T00:05:27;30.65;;;22.45;;
39740;SDS011;25426;53.478;10.190;2024-03-02T00:07:58;35.72;;;23.10;;
39740;SDS011;25426;53.478;10.190;2024-03-02T00:10:39;36.25;;;24.67;;
39740;SDS011;25426;53.478;10.190;2024-03-02T00:13:10;35.42;;;23.70;;
39740;SDS011;25426;53.478;10.190;2024-03-02T00:18:30;42.08;;;25.58;;
39740;SDS011;25426;53.478;10.190;2024-03-02T00:21:02;38.70;;;25.20;;
39740;SDS011;25426;53.478;10.190;2024-03-02T00:23:33;38.05;;;26.42;;
39740;SDS011;25426;53.478;10.190;2024-03-02T00:26:05;42.83;;;26.65;;
39740;SDS011;25426;53.478;10.190;2024-03-02T00:28:36;43.03;;;28.58;;
39740;SDS011;25426;53.478;10.190;2024-03-02T00:31:09;39.85;;;28.33;;
39740;SDS011;25426;53.478;10.190;2024-03-02T00:33:44;41.70;;;28.15;;
39740;SDS011;25426;53.478;10.190;2024-03-02T00:36:22;42.53;;;28.25;;
39740;SDS011;25426;53.478;10.190;2024-03-02T00:38:55;37.30;;;28.33;;
39740;SDS011;25426;53.478;10.190;2024-03-02T00:41:30;42.33;;;28.70;;
39740;SDS011;25426;53.478;10.190;2024-03-02T00:44:02;41.40;;;27.42;;
39740;SDS011;25426;53.478;10.190;2024-03-02T00:46:36;48.58;;;29.67;;
39740;SDS011;25426;53.478;10.190;2024-03-02T00:49:18;42.30;;;27.60;;
39740;SDS011;25426;53.478;10.190;2024-03-02T00:51:55;45.28;;;29.65;;
39740;SDS011;25426;53.478;10.190;2024-03-02T00:54:26;43.63;;;29.50;;
39740;SDS011;25426;53.478;10.190;2024-03-02T00:56:58;42.58;;;28.55;;
39740;SDS011;25426;53.478;10.190;2024-03-02T00:59:29;50.33;;;30.05;;
39740;SDS011;25426;53.478;10.190;2024-03-02T01:02:01;46.03;;;28.90;;
39740;SDS011;25426;53.478;10.190;2024-03-02T01:04:32;47.67;;;30.08;;
39740;SDS011;25426;53.478;10.190;2024-03-02T01:07:03;43.17;;;29.15;;
39740;SDS011;25426;53.478;10.190;2024-03-02T01:09:34;45.53;;;30.48;;
39740;SDS011;25426;53.478;10.190;2024-03-02T01:12:05;44.40;;;30.35;;
39740;SDS011;25426;53.478;10.190;2024-03-02T01:14:36;43.00;;;29.67;;
39740;SDS011;25426;53.478;10.190;2024-03-02T01:17:06;44.90;;;29.67;;
39740;SDS011;25426;53.478;10.190;2024-03-02T01:19:37;42.58;;;29.33;;
39740;SDS011;25426;53.478;10.190;2024-03-02T01:22:09;41.90;;;29.77;;
39740;SDS011;25426;53.478;10.190;2024-03-02T01:24:40;42.35;;;29.08;;
39740;SDS011;25426;53.478;10.190;2024-03-02T01:27:11;45.55;;;29.52;;
39740;SDS011;25426;53.478;10.190;2024-03-02T01:29:41;47.28;;;30.70;;
39740;SDS011;25426;53.478;10.190;2024-03-02T01:32:12;45.38;;;29.50;;
39740;SDS011;25426;53.478;10.190;2024-03-02T01:34:43;43.35;;;29.77;;
39740;SDS011;25426;53.478;10.190;2024-03-02T01:37:14;43.42;;;30.45;;
39740;SDS011;25426;53.478;10.190;2024-03-02T01:39:45;46.65;;;30.67;;
39740;SDS011;25426;53.478;10.190;2024-03-02T01:42:15;43.33;;;30.30;;
39740;SDS011;25426;53.478;10.190;2024-03-02T01:44:46;41.03;;;29.30;;
39740;SDS011;25426;53.478;10.190;2024-03-02T01:47:17;44.85;;;29.65;;
39740;SDS011;25426;53.478;10.190;2024-03-02T01:49:48;48.97;;;31.83;;
39740;SDS011;25426;53.478;10.190;2024-03-02T01:52:19;42.22;;;29.77;;
39740;SDS011;25426;53.478;10.190;2024-03-02T01:54:50;44.65;;;30.33;;
39740;SDS011;25426;53.478;10.190;2024-03-02T01:57:21;45.78;;;30.23;;
39740;SDS011;25426;53.478;10.190;2024-03-02T01:59:52;42.65;;;28.85;;
39740;SDS011;25426;53.478;10.190;2024-03-02T02:02:23;43.30;;;29.55;;
39740;SDS011;25426;53.478;10.190;2024-03-02T02:04:54;45.03;;;31.23;;
39740;SDS011;25426;53.478;10.190;2024-03-02T02:07:25;51.78;;;32.25;;
39740;SDS011;25426;53.478;10.190;2024-03-02T02:09:56;36.78;;;28.98;;
39740;SDS011;25426;53.478;10.190;2024-03-02T02:12:26;46.28;;;31.50;;
39740;SDS011;25426;53.478;10.190;2024-03-02T02:14:57;49.28;;;31.15;;
39740;SDS011;25426;53.478;10.190;2024-03-02T02:17:28;44.22;;;29.50;;
39740;SDS011;25426;53.478;10.190;2024-03-02T02:19:59;42.88;;;29.80;;
39740;SDS011;25426;53.478;10.190;2024-03-02T02:22:29;40.78;;;29.20;;
39740;SDS011;25426;53.478;10.190;2024-03-02T02:25:00;47.17;;;30.02;;
39740;SDS011;25426;53.478;10.190;2024-03-02T02:27:31;45.22;;;31.02;;
39740;SDS011;25426;53.478;10.190;2024-03-02T02:30:02;44.72;;;30.42;;
39740;SDS011;25426;53.478;10.190;2024-03-02T02:32:33;45.45;;;29.33;;
39740;SDS011;25426;53.478;10.190;2024-03-02T02:35:04;49.20;;;30.30;;
39740;SDS011;25426;53.478;10.190;2024-03-02T02:37:35;43.13;;;29.88;;
39740;SDS011;25426;53.478;10.190;2024-03-02T02:40:06;42.45;;;29.50;;
39740;SDS011;25426;53.478;10.190;2024-03-02T02:42:39;48.22;;;30.40;;
39740;SDS011;25426;53.478;10.190;2024-03-02T02:45:10;44.22;;;29.10;;
39740;SDS011;25426;53.478;10.190;2024-03-02T02:47:43;44.75;;;29.38;;
39740;SDS011;25426;53.478;10.190;2024-03-02T02:50:14;48.65;;;31.00;;
39740;SDS011;25426;53.478;10.190;2024-03-02T02:52:45;48.20;;;29.90;;
39740;SDS011;25426;53.478;10.190;2024-03-02T02:55:16;45.38;;;30.58;;
39740;SDS011;25426;53.478;10.190;2024-03-02T02:57:46;46.83;;;30.40;;
39740;SDS011;25426;53.478;10.190;2024-03-02T03:00:17;44.25;;;30.08;;
39740;SDS011;25426;53.478;10.190;2024-03-02T03:02:49;43.40;;;30.40;;
39740;SDS011;25426;53.478;10.190;2024-03-02T03:05:20;49.92;;;32.08;;
39740;SDS011;25426;53.478;10.190;2024-03-02T03:07:51;46.60;;;31.00;;
39740;SDS011;25426;53.478;10.190;2024-03-02T03:10:22;46.60;;;30.33;;
39740;SDS011;25426;53.478;10.190;2024-03-02T03:12:53;45.92;;;29.02;;
39740;SDS011;25426;53.478;10.190;2024-03-02T03:15:26;46.08;;;30.38;;
39740;SDS011;25426;53.478;10.190;2024-03-02T03:17:56;49.60;;;31.30;;
39740;SDS011;25426;53.478;10.190;2024-03-02T03:20:27;46.50;;;30.23;;
39740;SDS011;25426;53.478;10.190;2024-03-02T03:22:58;44.15;;;30.13;;
39740;SDS011;25426;53.478;10.190;2024-03-02T03:25:29;42.95;;;29.83;;
39740;SDS011;25426;53.478;10.190;2024-03-02T03:28:00;43.50;;;30.02;;
39740;SDS011;25426;53.478;10.190;2024-03-02T03:30:31;48.90;;;30.88;;
39740;SDS011;25426;53.478;10.190;2024-03-02T03:33:02;46.05;;;30.70;;
39740;SDS011;25426;53.478;10.190;2024-03-02T03:35:33;45.88;;;29.00;;
39740;SDS011;25426;53.478;10.190;2024-03-02T03:38:04;44.55;;;31.05;;
39740;SDS011;25426;53.478;10.190;2024-03-02T03:40:35;44.03;;;30.15;;
39740;SDS011;25426;53.478;10.190;2024-03-02T03:43:07;46.08;;;29.40;;
39740;SDS011;25426;53.478;10.190;2024-03-02T03:45:37;42.45;;;29.63;;
39740;SDS011;25426;53.478;10.190;2024-03-02T03:48:08;45.33;;;29.27;;
39740;SDS011;25426;53.478;10.190;2024-03-02T03:50:39;43.22;;;28.60;;
39740;SDS011;25426;53.478;10.190;2024-03-02T03:53:10;44.17;;;28.02;;
39740;SDS011;25426;53.478;10.190;2024-03-02T03:55:40;47.10;;;31.70;;
39740;SDS011;25426;53.478;10.190;2024-03-02T03:58:11;44.13;;;28.85;;
39740;SDS011;25426;53.478;10.190;2024-03-02T04:00:42;42.35;;;29.40;;
39740;SDS011;25426;53.478;10.190;2024-03-02T04:03:13;40.60;;;28.80;;
39740;SDS011;25426;53.478;10.190;2024-03-02T04:05:44;48.55;;;29.63;;
39740;SDS011;25426;53.478;10.190;2024-03-02T04:08:14;37.40;;;27.85;;
39740;SDS011;25426;53.478;10.190;2024-03-02T04:10:45;40.63;;;28.02;;
39740;SDS011;25426;53.478;10.190;2024-03-02T04:13:16;43.20;;;28.10;;
39740;SDS011;25426;53.478;10.190;2024-03-02T04:15:47;42.22;;;29.63;;
39740;SDS011;25426;53.478;10.190;2024-03-02T04:18:18;42.30;;;28.15;;
39740;SDS011;25426;53.478;10.190;2024-03-02T04:20:49;44.17;;;27.25;;
39740;SDS011;25426;53.478;10.190;2024-03-02T04:23:19;45.00;;;27.85;;
39740;SDS011;25426;53.478;10.190;2024-03-02T04:25:50;40.53;;;28.05;;
39740;SDS011;25426;53.478;10.190;2024-03-02T04:28:21;38.42;;;26.88;;
39740;SDS011;25426;53.478;10.190;2024-03-02T04:30:52;35.88;;;27.67;;
39740;SDS011;25426;53.478;10.190;2024-03-02T04:33:23;39.88;;;27.48;;
39740;SDS011;25426;53.478;10.190;2024-03-02T04:35:53;38.40;;;27.25;;
39740;SDS011;25426;53.478;10.190;2024-03-02T04:38:24;40.13;;;27.13;;
39740;SDS011;25426;53.478;10.190;2024-03-02T04:40:55;36.17;;;27.08;;
39740;SDS011;25426;53.478;10.190;2024-03-02T04:43:26;41.33;;;27.48;;
39740;SDS011;25426;53.478;10.190;2024-03-02T04:45:57;36.55;;;26.45;;
39740;SDS011;25426;53.478;10.190;2024-03-02T04:48:28;40.90;;;27.30;;
39740;SDS011;25426;53.478;10.190;2024-03-02T04:50:59;37.28;;;27.17;;
39740;SDS011;25426;53.478;10.190;2024-03-02T04:53:30;42.08;;;28.83;;
39740;SDS011;25426;53.478;10.190;2024-03-02T04:56:01;37.95;;;26.40;;
39740;SDS011;25426;53.478;10.190;2024-03-02T04:58:51;42.00;;;27.00;;
39740;SDS011;25426;53.478;10.190;2024-03-02T05:01:22;38.80;;;28.05;;
39740;SDS011;25426;53.478;10.190;2024-03-02T05:03:52;39.58;;;27.50;;
39740;SDS011;25426;53.478;10.190;2024-03-02T05:06:23;42.75;;;28.70;;
39740;SDS011;25426;53.478;10.190;2024-03-02T05:08:54;43.67;;;28.17;;
39740;SDS011;25426;53.478;10.190;2024-03-02T05:11:25;42.22;;;27.60;;
39740;SDS011;25426;53.478;10.190;2024-03-02T05:14:16;41.60;;;27.92;;
39740;SDS011;25426;53.478;10.190;2024-03-02T05:16:46;41.95;;;27.38;;
39740;SDS011;25426;53.478;10.190;2024-03-02T05:19:17;39.25;;;27.52;;
39740;SDS011;25426;53.478;10.190;2024-03-02T05:21:48;42.95;;;28.05;;
39740;SDS011;25426;53.478;10.190;2024-03-02T05:24:19;47.33;;;29.63;;
39740;SDS011;25426;53.478;10.190;2024-03-02T05:26:50;39.03;;;28.40;;
39740;SDS011;25426;53.478;10.190;2024-03-02T05:29:21;45.92;;;29.35;;
39740;SDS011;25426;53.478;10.190;2024-03-02T05:31:52;40.55;;;26.67;;
39740;SDS011;25426;53.478;10.190;2024-03-02T05:34:22;39.53;;;28.75;;
39740;SDS011;25426;53.478;10.190;2024-03-02T05:36:53;39.92;;;28.13;;
39740;SDS011;25426;53.478;10.190;2024-03-02T05:39:24;40.45;;;28.40;;
39740;SDS011;25426;53.478;10.190;2024-03-02T05:41:55;46.80;;;29.73;;
39740;SDS011;25426;53.478;10.190;2024-03-02T05:44:26;45.22;;;29.73;;
39740;SDS011;25426;53.478;10.190;2024-03-02T05:46:56;43.05;;;28.15;;
39740;SDS011;25426;53.478;10.190;2024-03-02T05:49:27;38.38;;;26.50;;
39740;SDS011;25426;53.478;10.190;2024-03-02T05:51:58;39.35;;;28.48;;
39740;SDS011;25426;53.478;10.190;2024-03-02T05:54:29;39.20;;;26.95;;
39740;SDS011;25426;53.478;10.190;2024-03-02T05:56:59;40.00;;;27.77;;
39740;SDS011;25426;53.478;10.190;2024-03-02T05:59:47;38.78;;;26.98;;
39740;SDS011;25426;53.478;10.190;2024-03-02T06:02:18;38.13;;;26.88;;
39740;SDS011;25426;53.478;10.190;2024-03-02T06:04:48;40.22;;;27.33;;
39740;SDS011;25426;53.478;10.190;2024-03-02T06:07:19;40.72;;;27.75;;
39740;SDS011;25426;53.478;10.190;2024-03-02T06:09:50;43.33;;;27.92;;
39740;SDS011;25426;53.478;10.190;2024-03-02T06:12:22;38.42;;;26.77;;
39740;SDS011;25426;53.478;10.190;2024-03-02T06:14:53;39.50;;;29.45;;
39740;SDS011;25426;53.478;10.190;2024-03-02T06:17:23;42.33;;;26.67;;
39740;SDS011;25426;53.478;10.190;2024-03-02T06:19:54;39.80;;;28.85;;
39740;SDS011;25426;53.478;10.190;2024-03-02T06:22:25;37.72;;;26.42;;
39740;SDS011;25426;53.478;10.190;2024-03-02T06:24:56;41.97;;;28.45;;
39740;SDS011;25426;53.478;10.190;2024-03-02T06:27:27;43.92;;;27.17;;
39740;SDS011;25426;53.478;10.190;2024-03-02T06:29:58;38.17;;;26.88;;
39740;SDS011;25426;53.478;10.190;2024-03-02T06:32:29;43.78;;;27.00;;
39740;SDS011;25426;53.478;10.190;2024-03-02T06:34:59;39.47;;;28.17;;
39740;SDS011;25426;53.478;10.190;2024-03-02T06:37:30;42.80;;;28.90;;
39740;SDS011;25426;53.478;10.190;2024-03-02T06:40:01;39.90;;;27.45;;
39740;SDS011;25426;53.478;10.190;2024-03-02T06:42:32;40.80;;;27.83;;
39740;SDS011;25426;53.478;10.190;2024-03-02T06:45:04;35.30;;;27.13;;
39740;SDS011;25426;53.478;10.190;2024-03-02T06:47:35;43.53;;;28.25;;
39740;SDS011;25426;53.478;10.190;2024-03-02T06:50:06;43.17;;;27.27;;
39740;SDS011;25426;53.478;10.190;2024-03-02T06:52:37;39.28;;;27.33;;
39740;SDS011;25426;53.478;10.190;2024-03-02T06:55:08;40.88;;;29.45;;
39740;SDS011;25426;53.478;10.190;2024-03-02T06:57:39;40.72;;;28.38;;
39740;SDS011;25426;53.478;10.190;2024-03-02T07:00:10;42.13;;;28.48;;
39740;SDS011;25426;53.478;10.190;2024-03-02T07:02:42;42.80;;;27.50;;
39740;SDS011;25426;53.478;10.190;2024-03-02T07:05:13;41.75;;;28.27;;
39740;SDS011;25426;53.478;10.190;2024-03-02T07:07:45;39.92;;;28.33;;
39740;SDS011;25426;53.478;10.190;2024-03-02T07:10:16;44.72;;;27.88;;
39740;SDS011;25426;53.478;10.190;2024-03-02T07:12:46;38.40;;;28.73;;
39740;SDS011;25426;53.478;10.190;2024-03-02T07:15:17;43.67;;;29.05;;
39740;SDS011;25426;53.478;10.190;2024-03-02T07:17:56;39.08;;;28.02;;
39740;SDS011;25426;53.478;10.190;2024-03-02T07:20:27;35.95;;;27.15;;
39740;SDS011;25426;53.478;10.190;2024-03-02T07:22:58;38.22;;;27.02;;
39740;SDS011;25426;53.478;10.190;2024-03-02T07:25:29;36.25;;;26.50;;
39740;SDS011;25426;53.478;10.190;2024-03-02T07:27:59;39.90;;;28.05;;
39740;SDS011;25426;53.478;10.190;2024-03-02T07:30:31;39.45;;;27.40;;
39740;SDS011;25426;53.478;10.190;2024-03-02T07:33:01;40.05;;;28.38;;
39740;SDS011;25426;53.478;10.190;2024-03-02T07:35:32;44.08;;;29.52;;
39740;SDS011;25426;53.478;10.190;2024-03-02T07:38:03;37.70;;;28.17;;
39740;SDS011;25426;53.478;10.190;2024-03-02T07:40:34;38.17;;;27.48;;
39740;SDS011;25426;53.478;10.190;2024-03-02T07:43:05;41.60;;;28.52;;
39740;SDS011;25426;53.478;10.190;2024-03-02T07:45:36;38.33;;;28.33;;
39740;SDS011;25426;53.478;10.190;2024-03-02T07:48:06;37.17;;;26.45;;
39740;SDS011;25426;53.478;10.190;2024-03-02T07:50:37;43.05;;;29.63;;
39740;SDS011;25426;53.478;10.190;2024-03-02T07:53:09;36.70;;;27.65;;
39740;SDS011;25426;53.478;10.190;2024-03-02T07:55:39;41.65;;;28.50;;
39740;SDS011;25426;53.478;10.190;2024-03-02T07:58:11;37.72;;;26.60;;
39740;SDS011;25426;53.478;10.190;2024-03-02T08:00:41;38.30;;;29.98;;
39740;SDS011;25426;53.478;10.190;2024-03-02T08:03:12;38.03;;;28.00;;
39740;SDS011;25426;53.478;10.190;2024-03-02T08:05:44;37.42;;;27.02;;
39740;SDS011;25426;53.478;10.190;2024-03-02T08:08:16;38.40;;;27.38;;
39740;SDS011;25426;53.478;10.190;2024-03-02T08:10:47;34.95;;;26.85;;
39740;SDS011;25426;53.478;10.190;2024-03-02T08:13:19;36.05;;;26.88;;
39740;SDS011;25426;53.478;10.190;2024-03-02T08:15:50;38.13;;;28.13;;
39740;SDS011;25426;53.478;10.190;2024-03-02T08:18:21;37.40;;;27.25;;
39740;SDS011;25426;53.478;10.190;2024-03-02T08:20:51;38.88;;;28.15;;
39740;SDS011;25426;53.478;10.190;2024-03-02T08:23:22;33.00;;;26.27;;
39740;SDS011;25426;53.478;10.190;2024-03-02T08:25:53;38.08;;;27.88;;
39740;SDS011;25426;53.478;10.190;2024-03-02T08:28:24;33.42;;;25.92;;
39740;SDS011;25426;53.478;10.190;2024-03-02T08:30:55;39.08;;;27.88;;
39740;SDS011;25426;53.478;10.190;2024-03-02T08:33:26;34.60;;;26.65;;
39740;SDS011;25426;53.478;10.190;2024-03-02T08:35:57;34.17;;;25.20;;
39740;SDS011;25426;53.478;10.190;2024-03-02T08:38:28;38.45;;;27.02;;
39740;SDS011;25426;53.478;10.190;2024-03-02T08:40:59;36.72;;;27.52;;
39740;SDS011;25426;53.478;10.190;2024-03-02T08:43:31;33.97;;;27.75;;
39740;SDS011;25426;53.478;10.190;2024-03-02T08:46:02;33.38;;;25.77;;
39740;SDS011;25426;53.478;10.190;2024-03-02T08:48:33;34.78;;;26.75;;
39740;SDS011;25426;53.478;10.190;2024-03-02T08:51:04;34.83;;;26.38;;
39740;SDS011;25426;53.478;10.190;2024-03-02T08:53:37;38.97;;;28.13;;
39740;SDS011;25426;53.478;10.190;2024-03-02T08:56:08;34.83;;;26.98;;
39740;SDS011;25426;53.478;10.190;2024-03-02T08:58:39;33.42;;;25.00;;
39740;SDS011;25426;53.478;10.190;2024-03-02T09:01:10;33.90;;;26.60;;
39740;SDS011;25426;53.478;10.190;2024-03-02T09:03:41;30.23;;;24.42;;
39740;SDS011;25426;53.478;10.190;2024-03-02T09:06:15;32.97;;;25.92;;
39740;SDS011;25426;53.478;10.190;2024-03-02T09:08:52;33.10;;;26.55;;
39740;SDS011;25426;53.478;10.190;2024-03-02T09:11:23;32.28;;;26.15;;
39740;SDS011;25426;53.478;10.190;2024-03-02T09:13:55;33.50;;;25.40;;
39740;SDS011;25426;53.478;10.190;2024-03-02T09:16:26;33.83;;;25.92;;
39740;SDS011;25426;53.478;10.190;2024-03-02T09:19:00;32.95;;;25.35;;
39740;SDS011;25426;53.478;10.190;2024-03-02T09:21:31;32.55;;;24.65;;
39740;SDS011;25426;53.478;10.190;2024-03-02T09:24:02;33.20;;;25.83;;
39740;SDS011;25426;53.478;10.190;2024-03-02T09:26:33;32.92;;;23.42;;
39740;SDS011;25426;53.478;10.190;2024-03-02T09:29:04;31.08;;;24.20;;
39740;SDS011;25426;53.478;10.190;2024-03-02T09:31:39;27.75;;;22.77;;
39740;SDS011;25426;53.478;10.190;2024-03-02T09:34:13;26.35;;;22.02;;
39740;SDS011;25426;53.478;10.190;2024-03-02T09:36:44;26.25;;;20.42;;
39740;SDS011;25426;53.478;10.190;2024-03-02T09:39:15;28.48;;;21.70;;
39740;SDS011;25426;53.478;10.190;2024-03-02T09:41:47;28.08;;;20.05;;
39740;SDS011;25426;53.478;10.190;2024-03-02T09:44:18;23.63;;;19.73;;
39740;SDS011;25426;53.478;10.190;2024-03-02T09:46:49;23.45;;;19.00;;
39740;SDS011;25426;53.478;10.190;2024-03-02T09:49:20;23.38;;;19.42;;
39740;SDS011;25426;53.478;10.190;2024-03-02T09:51:51;22.02;;;19.17;;
39740;SDS011;25426;53.478;10.190;2024-03-02T09:54:22;20.95;;;17.92;;
39740;SDS011;25426;53.478;10.190;2024-03-02T09:56:53;22.58;;;18.95;;
39740;SDS011;25426;53.478;10.190;2024-03-02T09:59:24;20.48;;;18.27;;
39740;SDS011;25426;53.478;10.190;2024-03-02T10:01:58;21.63;;;19.33;;
39740;SDS011;25426;53.478;10.190;2024-03-02T10:04:32;22.23;;;19.45;;
39740;SDS011;25426;53.478;10.190;2024-03-02T10:07:16;20.27;;;18.00;;
39740;SDS011;25426;53.478;10.190;2024-03-02T10:09:48;20.70;;;17.48;;
39740;SDS011;25426;53.478;10.190;2024-03-02T10:12:19;20.80;;;17.73;;
39740;SDS011;25426;53.478;10.190;2024-03-02T10:14:50;19.48;;;17.00;;
39740;SDS011;25426;53.478;10.190;2024-03-02T10:17:35;18.40;;;16.45;;
39740;SDS011;25426;53.478;10.190;2024-03-02T10:20:39;21.25;;;17.17;;
39740;SDS011;25426;53.478;10.190;2024-03-02T10:23:13;19.42;;;15.68;;
39740;SDS011;25426;53.478;10.190;2024-03-02T10:25:46;18.38;;;15.68;;
39740;SDS011;25426;53.478;10.190;2024-03-02T10:28:17;21.33;;;16.05;;
39740;SDS011;25426;53.478;10.190;2024-03-02T10:30:48;16.70;;;15.00;;
39740;SDS011;25426;53.478;10.190;2024-03-02T10:33:20;17.30;;;15.50;;
39740;SDS011;25426;53.478;10.190;2024-03-02T10:35:50;16.50;;;14.70;;
39740;SDS011;25426;53.478;10.190;2024-03-02T10:38:22;19.75;;;15.48;;
39740;SDS011;25426;53.478;10.190;2024-03-02T10:40:53;17.45;;;14.23;;
39740;SDS011;25426;53.478;10.190;2024-03-02T10:43:25;16.58;;;13.95;;
39740;SDS011;25426;53.478;10.190;2024-03-02T10:45:56;16.02;;;14.23;;
39740;SDS011;25426;53.478;10.190;2024-03-02T10:48:28;18.38;;;14.98;;
39740;SDS011;25426;53.478;10.190;2024-03-02T10:50:58;20.95;;;15.70;;
39740;SDS011;25426;53.478;10.190;2024-03-02T10:53:31;16.88;;;15.07;;
39740;SDS011;25426;53.478;10.190;2024-03-02T10:56:02;19.38;;;15.93;;
39740;SDS011;25426;53.478;10.190;2024-03-02T10:58:37;17.73;;;14.82;;
39740;SDS011;25426;53.478;10.190;2024-03-02T11:01:09;17.67;;;14.48;;
39740;SDS011;25426;53.478;10.190;2024-03-02T11:03:41;16.92;;;14.07;;
39740;SDS011;25426;53.478;10.190;2024-03-02T11:06:13;15.70;;;14.10;;
39740;SDS011;25426;53.478;10.190;2024-03-02T11:08:43;14.30;;;12.77;;
39740;SDS011;25426;53.478;10.190;2024-03-02T11:11:18;15.25;;;13.65;;
39740;SDS011;25426;53.478;10.190;2024-03-02T11:13:54;16.45;;;14.75;;
39740;SDS011;25426;53.478;10.190;2024-03-02T11:19:10;17.67;;;13.40;;
39740;SDS011;25426;53.478;10.190;2024-03-02T11:21:42;15.50;;;13.05;;
39740;SDS011;25426;53.478;10.190;2024-03-02T11:26:54;16.98;;;13.02;;
39740;SDS011;25426;53.478;10.190;2024-03-02T11:34:48;14.27;;;11.85;;
39740;SDS011;25426;53.478;10.190;2024-03-02T11:37:20;13.90;;;11.82;;
39740;SDS011;25426;53.478;10.190;2024-03-02T11:39:51;16.92;;;14.48;;
39740;SDS011;25426;53.478;10.190;2024-03-02T11:42:21;16.58;;;14.77;;
39740;SDS011;25426;53.478;10.190;2024-03-02T11:44:52;16.63;;;14.93;;
39740;SDS011;25426;53.478;10.190;2024-03-02T11:47:27;16.33;;;14.65;;
39740;SDS011;25426;53.478;10.190;2024-03-02T11:50:01;16.45;;;13.90;;
39740;SDS011;25426;53.478;10.190;2024-03-02T11:52:37;16.88;;;14.75;;
39740;SDS011;25426;53.478;10.190;2024-03-02T11:55:08;17.88;;;13.77;;
39740;SDS011;25426;53.478;10.190;2024-03-02T11:57:40;15.68;;;14.05;;
39740;SDS011;25426;53.478;10.190;2024-03-02T12:00:20;18.13;;;14.18;;
39740;SDS011;25426;53.478;10.190;2024-03-02T12:03:04;17.27;;;13.93;;
39740;SDS011;25426;53.478;10.190;2024-03-02T12:05:37;16.20;;;13.95;;
39740;SDS011;25426;53.478;10.190;2024-03-02T12:08:08;16.88;;;13.50;;
39740;SDS011;25426;53.478;10.190;2024-03-02T12:10:39;15.85;;;12.68;;
39740;SDS011;25426;53.478;10.190;2024-03-02T12:13:10;15.07;;;12.60;;
39740;SDS011;25426;53.478;10.190;2024-03-02T12:15:41;16.67;;;13.82;;
39740;SDS011;25426;53.478;10.190;2024-03-02T12:18:12;16.73;;;13.55;;
39740;SDS011;25426;53.478;10.190;2024-03-02T12:20:43;14.93;;;13.25;;
39740;SDS011;25426;53.478;10.190;2024-03-02T12:23:14;18.27;;;14.32;;
39740;SDS011;25426;53.478;10.190;2024-03-02T12:25:44;15.93;;;13.40;;
39740;SDS011;25426;53.478;10.190;2024-03-02T12:28:15;25.63;;;12.93;;
39740;SDS011;25426;53.478;10.190;2024-03-02T12:30:47;16.15;;;13.00;;
39740;SDS011;25426;53.478;10.190;2024-03-02T12:33:19;14.90;;;12.93;;
39740;SDS011;25426;53.478;10.190;2024-03-02T12:35:50;14.35;;;12.90;;
39740;SDS011;25426;53.478;10.190;2024-03-02T12:38:21;15.40;;;13.43;;
39740;SDS011;25426;53.478;10.190;2024-03-02T12:40:55;15.55;;;13.65;;
39740;SDS011;25426;53.478;10.190;2024-03-02T12:43:29;15.10;;;13.57;;
39740;SDS011;25426;53.478;10.190;2024-03-02T12:46:01;14.75;;;13.13;;
39740;SDS011;25426;53.478;10.190;2024-03-02T12:48:34;14.35;;;12.85;;
39740;SDS011;25426;53.478;10.190;2024-03-02T12:51:06;15.20;;;12.93;;
39740;SDS011;25426;53.478;10.190;2024-03-02T12:53:37;14.30;;;12.77;;
39740;SDS011;25426;53.478;10.190;2024-03-02T12:56:08;17.02;;;12.80;;
39740;SDS011;25426;53.478;10.190;2024-03-02T12:58:39;16.77;;;12.38;;
39740;SDS011;25426;53.478;10.190;2024-03-02T13:01:14;14.88;;;13.23;;
39740;SDS011;25426;53.478;10.190;2024-03-02T13:03:49;16.23;;;13.13;;
39740;SDS011;25426;53.478;10.190;2024-03-02T13:06:21;16.02;;;13.50;;
39740;SDS011;25426;53.478;10.190;2024-03-02T13:08:52;14.38;;;12.50;;
39740;SDS011;25426;53.478;10.190;2024-03-02T13:11:23;16.85;;;14.05;;
39740;SDS011;25426;53.478;10.190;2024-03-02T13:13:54;16.02;;;13.52;;
39740;SDS011;25426;53.478;10.190;2024-03-02T13:16:25;17.92;;;14.68;;
39740;SDS011;25426;53.478;10.190;2024-03-02T13:18:56;18.00;;;14.88;;
39740;SDS011;25426;53.478;10.190;2024-03-02T13:21:27;16.45;;;14.50;;
39740;SDS011;25426;53.478;10.190;2024-03-02T13:23:57;18.92;;;14.88;;
39740;SDS011;25426;53.478;10.190;2024-03-02T13:26:28;17.13;;;13.85;;
39740;SDS011;25426;53.478;10.190;2024-03-02T13:28:59;15.60;;;13.98;;
39740;SDS011;25426;53.478;10.190;2024-03-02T13:31:30;15.00;;;13.15;;
39740;SDS011;25426;53.478;10.190;2024-03-02T13:34:01;15.52;;;13.90;;
39740;SDS011;25426;53.478;10.190;2024-03-02T13:36:31;16.27;;;13.70;;
39740;SDS011;25426;53.478;10.190;2024-03-02T13:39:02;18.17;;;15.02;;
39740;SDS011;25426;53.478;10.190;2024-03-02T13:41:35;18.52;;;14.63;;
39740;SDS011;25426;53.478;10.190;2024-03-02T13:44:06;15.40;;;13.80;;
39740;SDS011;25426;53.478;10.190;2024-03-02T13:46:37;14.85;;;13.30;;
39740;SDS011;25426;53.478;10.190;2024-03-02T13:49:08;15.57;;;13.30;;
39740;SDS011;25426;53.478;10.190;2024-03-02T13:51:39;14.50;;;12.48;;
39740;SDS011;25426;53.478;10.190;2024-03-02T13:54:10;15.48;;;13.05;;
39740;SDS011;25426;53.478;10.190;2024-03-02T13:56:41;14.10;;;12.60;;
39740;SDS011;25426;53.478;10.190;2024-03-02T13:59:12;16.83;;;13.35;;
39740;SDS011;25426;53.478;10.190;2024-03-02T14:01:42;15.70;;;12.02;;
39740;SDS011;25426;53.478;10.190;2024-03-02T14:04:14;14.02;;;12.48;;
39740;SDS011;25426;53.478;10.190;2024-03-02T14:06:45;14.57;;;12.20;;
39740;SDS011;25426;53.478;10.190;2024-03-02T14:09:16;13.20;;;11.70;;
39740;SDS011;25426;53.478;10.190;2024-03-02T14:11:52;14.15;;;12.38;;
39740;SDS011;25426;53.478;10.190;2024-03-02T14:14:23;13.43;;;12.00;;
39740;SDS011;25426;53.478;10.190;2024-03-02T14:16:54;12.80;;;11.07;;
39740;SDS011;25426;53.478;10.190;2024-03-02T14:19:36;14.27;;;10.95;;
39740;SDS011;25426;53.478;10.190;2024-03-02T14:22:06;15.35;;;12.05;;
39740;SDS011;25426;53.478;10.190;2024-03-02T14:24:37;13.52;;;12.07;;
39740;SDS011;25426;53.478;10.190;2024-03-02T14:27:08;14.27;;;12.75;;
39740;SDS011;25426;53.478;10.190;2024-03-02T14:29:39;14.32;;;12.82;;
39740;SDS011;25426;53.478;10.190;2024-03-02T14:32:13;17.67;;;13.15;;
39740;SDS011;25426;53.478;10.190;2024-03-02T14:34:44;15.32;;;13.73;;
39740;SDS011;25426;53.478;10.190;2024-03-02T14:37:16;18.00;;;13.52;;
39740;SDS011;25426;53.478;10.190;2024-03-02T14:39:47;16.80;;;12.82;;
39740;SDS011;25426;53.478;10.190;2024-03-02T14:42:18;16.02;;;13.73;;
39740;SDS011;25426;53.478;10.190;2024-03-02T14:44:48;14.75;;;13.25;;
39740;SDS011;25426;53.478;10.190;2024-03-02T14:47:19;15.23;;;13.60;;